createdAt,value
2023-03-16T00:00:17.751Z,-0.14
2023-03-16T00:02:48.156Z,-0.13
2023-03-16T00:05:16.752Z,-0.05
2023-03-16T00:07:45.282Z,0.06
2023-03-16T00:10:14.802Z,-0.03
2023-03-16T00:12:44.992Z,0.10
2023-03-16T00:15:14.146Z,0.15
2023-03-16T00:17:48.863Z,-0.03
2023-03-16T00:20:20.243Z,0.04
2023-03-16T00:22:48.861Z,0.03
2023-03-16T00:25:17.822Z,0.16
2023-03-16T00:27:46.427Z,0.13
2023-03-16T00:30:15.573Z,0.20
2023-03-16T00:32:44.151Z,0.24
2023-03-16T00:35:12.871Z,0.24
2023-03-16T00:37:44.322Z,0.11
2023-03-16T00:40:14.012Z,0.18
2023-03-16T00:42:42.551Z,0.22
2023-03-16T00:45:12.445Z,0.33
2023-03-16T00:47:42.212Z,0.26
2023-03-16T00:50:12.319Z,0.31
2023-03-16T00:52:43.248Z,0.33
2023-03-16T00:55:13.684Z,0.29
2023-03-16T00:57:42.205Z,0.29
2023-03-16T01:00:16.723Z,0.35
2023-03-16T01:02:46.264Z,0.12
2023-03-16T01:05:16.352Z,0.23
2023-03-16T01:07:46.281Z,0.23
2023-03-16T01:10:15.323Z,0.26
2023-03-16T01:12:45.176Z,0.36
2023-03-16T01:15:14.283Z,0.33
2023-03-16T01:17:42.811Z,0.46
2023-03-16T01:20:15.087Z,0.50
2023-03-16T01:22:45.038Z,0.54
2023-03-16T01:25:14.896Z,0.61
2023-03-16T01:27:44.097Z,0.65
2023-03-16T01:30:14.078Z,0.65
2023-03-16T01:32:43.388Z,0.55
2023-03-16T01:35:14.907Z,0.30
2023-03-16T01:37:44.762Z,0.33
2023-03-16T01:40:19.949Z,0.27
2023-03-16T01:42:50.483Z,0.23
2023-03-16T01:46:14.258Z,0.28
2023-03-16T01:48:56.592Z,0.42
2023-03-16T01:51:36.430Z,0.45
2023-03-16T01:54:17.349Z,0.55
2023-03-16T01:56:55.781Z,0.19
2023-03-16T01:59:31.795Z,0.41
2023-03-16T02:02:01.884Z,0.46
2023-03-16T02:04:52.067Z,0.70
2023-03-16T02:07:26.833Z,0.74
2023-03-16T02:10:02.520Z,0.82
2023-03-16T02:12:32.201Z,0.60
2023-03-16T02:15:03.498Z,0.47
2023-03-16T02:17:35.559Z,0.28
2023-03-16T02:20:28.405Z,0.36
2023-03-16T02:22:57.516Z,0.43
2023-03-16T02:25:39.007Z,0.10
2023-03-16T02:28:20.424Z,0.26
2023-03-16T02:30:51.368Z,0.21
2023-03-16T02:33:22.097Z,0.25
2023-03-16T02:35:52.322Z,0.48
2023-03-16T02:38:20.892Z,0.54
2023-03-16T02:41:00.949Z,0.75
2023-03-16T02:43:36.258Z,0.75
2023-03-16T02:46:28.925Z,0.73
2023-03-16T02:49:06.751Z,0.62
2023-03-16T02:51:35.488Z,0.51
2023-03-16T02:54:04.173Z,0.35
2023-03-16T02:56:35.782Z,0.47
2023-03-16T02:59:04.369Z,0.31
2023-03-16T03:01:36.614Z,0.25
2023-03-16T03:04:07.476Z,0.20
2023-03-16T03:06:36.729Z,0.17
2023-03-16T03:09:07.967Z,0.15
2023-03-16T03:11:38.283Z,0.12
2023-03-16T03:14:07.230Z,0.00
2023-03-16T03:16:38.184Z,-0.09
2023-03-16T03:19:06.836Z,0.12
2023-03-16T03:21:38.802Z,0.07
2023-03-16T03:24:09.600Z,0.13
2023-03-16T03:26:39.238Z,0.07
2023-03-16T03:29:12.597Z,0.06
2023-03-16T03:31:43.705Z,0.12
2023-03-16T03:34:12.536Z,-0.11
2023-03-16T03:36:41.479Z,0.14
2023-03-16T03:39:10.114Z,0.09
2023-03-16T03:41:38.921Z,0.01
2023-03-16T03:44:09.228Z,0.07
2023-03-16T03:46:38.627Z,-0.01
2023-03-16T03:49:08.714Z,-0.08
2023-03-16T03:51:37.484Z,0.16
2023-03-16T03:54:10.087Z,0.18
2023-03-16T03:56:53.834Z,0.07
2023-03-16T03:59:23.588Z,0.12
2023-03-16T04:02:21.665Z,0.05
2023-03-16T04:04:55.162Z,-0.11
2023-03-16T04:07:23.672Z,-0.07
2023-03-16T04:09:55.718Z,-0.15
2023-03-16T04:12:36.380Z,-0.15
2023-03-16T04:15:06.507Z,-0.09
2023-03-16T04:17:42.493Z,-0.28
2023-03-16T04:20:15.562Z,-0.33
2023-03-16T04:22:48.303Z,-0.38
2023-03-16T04:25:19.235Z,-0.06
2023-03-16T04:27:49.360Z,-0.03
2023-03-16T04:30:19.494Z,0.03
2023-03-16T04:32:53.262Z,0.03
2023-03-16T04:35:24.817Z,-0.05
2023-03-16T04:37:56.607Z,0.05
2023-03-16T04:40:32.162Z,0.12
2023-03-16T04:43:10.728Z,0.13
2023-03-16T04:45:39.338Z,0.18
2023-03-16T04:48:08.119Z,0.30
2023-03-16T04:50:38.711Z,0.28
2023-03-16T04:53:08.084Z,0.25
2023-03-16T04:55:36.988Z,0.26
2023-03-16T04:58:06.452Z,0.28
2023-03-16T05:00:39.451Z,0.12
2023-03-16T05:03:14.153Z,0.14
2023-03-16T05:05:45.398Z,0.05
2023-03-16T05:08:14.575Z,0.06
2023-03-16T05:10:47.971Z,0.14
2023-03-16T05:13:17.108Z,0.10
2023-03-16T05:15:48.062Z,0.03
2023-03-16T05:18:21.534Z,0.21
2023-03-16T05:20:55.905Z,0.18
2023-03-16T05:23:26.534Z,0.21
2023-03-16T05:26:01.075Z,0.46
2023-03-16T05:28:32.216Z,0.46
2023-03-16T05:31:07.773Z,0.41
2023-03-16T05:33:44.664Z,0.52
2023-03-16T05:36:18.685Z,0.38
2023-03-16T05:38:50.177Z,0.35
2023-03-16T05:41:40.071Z,0.48
2023-03-16T05:44:14.957Z,0.51
2023-03-16T05:47:06.527Z,0.75
2023-03-16T05:49:38.602Z,0.74
2023-03-16T05:52:13.902Z,0.86
2023-03-16T05:54:43.013Z,0.88
2023-03-16T05:57:12.706Z,0.92
2023-03-16T05:59:43.928Z,0.82
2023-03-16T06:02:13.842Z,0.88
2023-03-16T06:04:42.793Z,0.99
2023-03-16T06:07:13.577Z,0.92
2023-03-16T06:09:42.326Z,0.85
2023-03-16T06:12:16.136Z,0.72
2023-03-16T06:14:45.135Z,0.76
2023-03-16T06:17:13.876Z,0.85
2023-03-16T06:19:43.962Z,1.06
2023-03-16T06:22:14.097Z,0.52
2023-03-16T06:24:43.787Z,0.72
2023-03-16T06:27:13.693Z,0.98
2023-03-16T06:29:58.127Z,1.26
2023-03-16T06:32:27.363Z,1.10
2023-03-16T06:34:59.486Z,1.28
2023-03-16T06:37:29.630Z,1.31
2023-03-16T06:39:59.383Z,1.49
2023-03-16T06:42:28.950Z,1.65
2023-03-16T06:44:58.841Z,1.71
2023-03-16T06:47:27.713Z,2.09
2023-03-16T06:49:56.353Z,1.96
2023-03-16T06:52:29.090Z,1.90
2023-03-16T06:54:58.512Z,2.05
2023-03-16T06:57:28.887Z,2.03
2023-03-16T06:59:57.450Z,2.04
2023-03-16T07:02:26.279Z,1.65
2023-03-16T07:04:55.069Z,2.04
2023-03-16T07:07:24.503Z,2.13
2023-03-16T07:09:54.545Z,2.32
2023-03-16T07:12:23.069Z,2.12
2023-03-16T07:14:54.157Z,2.44
2023-03-16T07:17:26.206Z,2.65
2023-03-16T07:19:54.994Z,2.52
2023-03-16T07:22:23.485Z,2.65
2023-03-16T07:24:57.396Z,2.96
2023-03-16T07:27:27.727Z,2.97
2023-03-16T07:29:57.212Z,2.93
2023-03-16T07:32:26.021Z,3.10
2023-03-16T07:34:55.764Z,3.42
2023-03-16T07:37:26.238Z,3.56
2023-03-16T07:39:59.868Z,3.61
2023-03-16T07:42:28.577Z,3.65
2023-03-16T07:45:26.362Z,3.61
2023-03-16T07:47:55.956Z,3.85
2023-03-16T07:50:41.636Z,4.06
2023-03-16T07:53:10.732Z,4.08
2023-03-16T07:55:43.231Z,4.03
2023-03-16T07:58:12.304Z,3.80
2023-03-16T08:00:44.073Z,3.71
2023-03-16T08:03:13.964Z,3.76
2023-03-16T08:05:43.057Z,3.75
2023-03-16T08:08:16.044Z,3.87
2023-03-16T08:10:48.749Z,3.60
2023-03-16T08:13:20.763Z,3.85
2023-03-16T08:15:58.366Z,3.87
2023-03-16T08:18:34.786Z,3.95
2023-03-16T08:21:04.973Z,4.19
2023-03-16T08:23:33.963Z,4.08
2023-03-16T08:26:08.706Z,4.69
2023-03-16T08:28:38.367Z,4.84
2023-03-16T08:31:12.328Z,5.18
2023-03-16T08:34:01.284Z,5.46
2023-03-16T08:36:32.524Z,5.00
2023-03-16T08:39:07.214Z,5.22
2023-03-16T08:41:48.244Z,5.61
2023-03-16T08:44:33.872Z,5.61
2023-03-16T08:47:02.833Z,6.01
2023-03-16T08:49:31.795Z,6.20
2023-03-16T08:52:07.266Z,6.51
2023-03-16T08:54:35.898Z,6.26
2023-03-16T08:57:06.338Z,5.82
2023-03-16T08:59:35.068Z,5.76
2023-03-16T09:02:04.554Z,5.61
2023-03-16T09:04:33.717Z,6.13
2023-03-16T09:07:08.817Z,5.84
2023-03-16T09:09:38.561Z,5.95
2023-03-16T09:12:09.566Z,6.00
2023-03-16T09:14:38.666Z,5.11
2023-03-16T09:17:08.880Z,5.32
2023-03-16T09:19:50.432Z,5.50
2023-03-16T09:22:20.095Z,5.21
2023-03-16T09:24:51.261Z,5.53
2023-03-16T09:27:22.484Z,5.50
2023-03-16T09:29:53.148Z,5.38
2023-03-16T09:32:21.798Z,5.96
2023-03-16T09:34:50.679Z,6.33
2023-03-16T09:37:19.291Z,6.87
2023-03-16T09:39:48.380Z,7.17
2023-03-16T09:42:26.936Z,7.37
2023-03-16T09:45:10.660Z,6.78
2023-03-16T09:47:41.674Z,6.57
2023-03-16T09:50:23.091Z,6.51
2023-03-16T09:53:02.569Z,6.54
2023-03-16T09:55:52.186Z,6.64
2023-03-16T09:59:01.087Z,6.45
2023-03-16T10:02:13.708Z,6.60
2023-03-16T10:04:59.453Z,6.86
2023-03-16T10:07:45.258Z,7.10
2023-03-16T10:10:56.790Z,7.25
2023-03-16T10:16:33.292Z,7.93
2023-03-16T10:19:12.916Z,7.50
2023-03-16T10:21:43.769Z,7.59
2023-03-16T10:24:27.804Z,7.68
2023-03-16T10:27:00.565Z,7.59
2023-03-16T10:29:35.131Z,8.04
2023-03-16T10:32:14.720Z,8.55
2023-03-16T10:34:49.254Z,8.47
2023-03-16T10:37:18.024Z,8.37
2023-03-16T10:39:49.088Z,8.22
2023-03-16T10:42:21.364Z,8.69
2023-03-16T10:44:50.699Z,9.29
2023-03-16T10:47:25.037Z,9.03
2023-03-16T10:49:53.656Z,8.34
2023-03-16T10:52:39.863Z,9.08
2023-03-16T10:55:16.944Z,9.71
2023-03-16T10:57:53.569Z,10.01
2023-03-16T11:00:28.943Z,10.52
2023-03-16T11:03:01.222Z,10.00
2023-03-16T11:05:33.183Z,9.77
2023-03-16T11:08:10.781Z,9.58
2023-03-16T11:10:55.121Z,9.66
2023-03-16T11:13:33.468Z,9.92
2023-03-16T11:16:16.826Z,10.01
2023-03-16T11:18:53.192Z,10.26
2023-03-16T11:21:36.267Z,11.47
2023-03-16T11:24:12.406Z,11.76
2023-03-16T11:26:43.379Z,11.21
2023-03-16T11:29:25.228Z,11.29
2023-03-16T11:31:58.652Z,11.15
2023-03-16T11:34:31.970Z,10.87
2023-03-16T11:37:15.829Z,10.73
2023-03-16T11:40:02.350Z,11.09
2023-03-16T11:42:38.160Z,11.77
2023-03-16T11:45:21.656Z,11.82
2023-03-16T11:48:18.997Z,11.57
2023-03-16T11:51:06.361Z,11.34
2023-03-16T11:53:52.804Z,11.12
2023-03-16T11:56:34.945Z,10.37
2023-03-16T11:59:37.694Z,11.09
2023-03-16T12:02:40.081Z,10.63
2023-03-16T12:05:55.232Z,10.66
2023-03-16T12:08:54.584Z,10.69
2023-03-16T12:11:31.228Z,11.51
2023-03-16T12:14:18.246Z,12.17
2023-03-16T12:16:53.863Z,12.18
2023-03-16T12:19:30.799Z,11.86
2023-03-16T12:22:10.343Z,11.93
2023-03-16T12:24:47.025Z,11.72
2023-03-16T12:27:20.270Z,12.34
2023-03-16T12:30:16.089Z,12.58
2023-03-16T12:32:55.568Z,12.70
2023-03-16T12:35:38.795Z,13.12
2023-03-16T12:38:37.336Z,13.16
2023-03-16T12:41:23.983Z,13.06
2023-03-16T12:44:13.814Z,13.82
2023-03-16T12:46:57.743Z,13.46
2023-03-16T12:49:32.511Z,14.00
2023-03-16T12:52:04.847Z,14.14
2023-03-16T12:54:33.523Z,13.69
2023-03-16T12:57:07.148Z,14.00
2023-03-16T12:59:42.838Z,14.09
2023-03-16T13:02:19.567Z,13.89
2023-03-16T13:04:56.194Z,13.59
2023-03-16T13:07:28.660Z,13.88
2023-03-16T13:10:03.754Z,14.07
2023-03-16T13:12:37.131Z,14.26
2023-03-16T13:15:27.576Z,14.33
2023-03-16T13:18:22.345Z,14.43
2023-03-16T13:20:59.918Z,14.58
2023-03-16T13:23:47.564Z,15.13
2023-03-16T13:26:19.917Z,14.87
2023-03-16T13:28:56.306Z,14.73
2023-03-16T13:31:35.986Z,14.64
2023-03-16T13:34:13.287Z,14.68
2023-03-16T13:36:45.395Z,14.32
2023-03-16T13:39:20.180Z,14.15
2023-03-16T13:42:01.840Z,14.44
2023-03-16T13:44:34.933Z,14.60
2023-03-16T13:47:07.462Z,14.55
2023-03-16T13:49:45.007Z,14.61
2023-03-16T13:52:23.496Z,14.73
2023-03-16T13:54:53.609Z,14.60
2023-03-16T13:57:26.988Z,14.56
2023-03-16T14:00:07.861Z,13.96
2023-03-16T14:02:43.547Z,14.25
2023-03-16T14:05:13.757Z,14.05
2023-03-16T14:07:42.355Z,14.21
2023-03-16T14:10:17.038Z,14.33
2023-03-16T14:12:53.534Z,13.73
2023-03-16T14:15:27.561Z,13.96
2023-03-16T14:18:14.188Z,13.88
2023-03-16T14:20:42.902Z,14.14
2023-03-16T14:23:23.212Z,14.18
2023-03-16T14:25:53.738Z,14.32
2023-03-16T14:28:32.397Z,13.77
2023-03-16T14:31:10.566Z,13.39
2023-03-16T14:33:46.054Z,13.24
2023-03-16T14:36:17.703Z,13.74
2023-03-16T14:38:49.230Z,13.55
2023-03-16T14:41:26.898Z,13.12
2023-03-16T14:43:59.546Z,13.37
2023-03-16T14:46:33.364Z,13.34
2023-03-16T14:49:07.913Z,12.94
2023-03-16T14:51:39.972Z,12.79
2023-03-16T14:54:15.043Z,12.97
2023-03-16T14:56:44.652Z,13.31
2023-03-16T14:59:13.257Z,13.21
2023-03-16T15:01:44.691Z,12.69
2023-03-16T15:04:17.316Z,12.24
2023-03-16T15:06:50.058Z,12.35
2023-03-16T15:09:37.091Z,12.31
2023-03-16T15:12:15.443Z,12.05
2023-03-16T15:15:01.630Z,12.00
2023-03-16T15:17:32.459Z,11.79
2023-03-16T15:20:01.306Z,11.76
2023-03-16T15:22:33.346Z,11.69
2023-03-16T15:25:21.391Z,11.39
2023-03-16T15:27:50.659Z,11.17
2023-03-16T15:30:22.999Z,11.10
2023-03-16T15:32:53.906Z,10.97
2023-03-16T15:35:23.175Z,10.59
2023-03-16T15:37:51.790Z,10.62
2023-03-16T15:40:25.243Z,10.06
2023-03-16T15:42:54.566Z,9.83
2023-03-16T15:45:25.548Z,9.65
2023-03-16T15:47:56.081Z,9.68
2023-03-16T15:50:27.738Z,9.68
2023-03-16T15:53:03.740Z,9.60
2023-03-16T15:55:38.340Z,9.28
2023-03-16T15:58:15.614Z,9.33
2023-03-16T16:00:45.836Z,9.15
2023-03-16T16:03:16.159Z,8.99
2023-03-16T16:05:45.172Z,8.95
2023-03-16T16:08:14.055Z,9.10
2023-03-16T16:10:44.618Z,9.10
2023-03-16T16:13:34.043Z,8.99
2023-03-16T16:16:13.363Z,9.01
2023-03-16T16:18:43.700Z,9.08
2023-03-16T16:21:19.265Z,8.98
2023-03-16T16:23:48.743Z,8.76
2023-03-16T16:26:45.513Z,8.63
2023-03-16T16:29:18.889Z,8.67
2023-03-16T16:31:47.563Z,8.58
2023-03-16T16:34:21.815Z,8.45
2023-03-16T16:36:51.348Z,8.40
2023-03-16T16:39:20.553Z,8.41
2023-03-16T16:41:51.798Z,8.41
2023-03-16T16:44:24.871Z,8.21
2023-03-16T16:46:54.824Z,8.21
2023-03-16T16:49:30.602Z,8.23
2023-03-16T16:52:00.010Z,8.15
2023-03-16T16:54:31.689Z,8.05
2023-03-16T16:57:03.097Z,7.97
2023-03-16T16:59:34.882Z,7.76
2023-03-16T17:02:19.716Z,7.63
2023-03-16T17:04:50.868Z,7.57
2023-03-16T17:07:19.600Z,7.52
2023-03-16T17:09:48.396Z,7.36
2023-03-16T17:12:22.768Z,7.34
2023-03-16T17:14:52.088Z,7.21
2023-03-16T17:17:22.322Z,7.20
2023-03-16T17:19:52.958Z,7.08
2023-03-16T17:22:25.625Z,6.92
2023-03-16T17:24:55.136Z,6.93
2023-03-16T17:27:29.547Z,6.84
2023-03-16T17:29:59.016Z,6.81
2023-03-16T17:32:27.792Z,6.62
2023-03-16T17:34:57.752Z,6.49
2023-03-16T17:37:26.383Z,6.30
2023-03-16T17:39:57.383Z,6.28
2023-03-16T17:42:27.090Z,6.16
2023-03-16T17:44:55.953Z,6.11
2023-03-16T17:47:28.809Z,6.11
2023-03-16T17:49:58.946Z,6.08
2023-03-16T17:52:30.346Z,5.98
2023-03-16T17:54:59.070Z,5.87
2023-03-16T17:57:32.078Z,5.90
2023-03-16T18:00:02.605Z,5.83
2023-03-16T18:02:50.667Z,5.76
2023-03-16T18:05:23.703Z,5.82
2023-03-16T18:07:53.532Z,5.72
2023-03-16T18:10:26.264Z,5.66
2023-03-16T18:13:00.774Z,5.65
2023-03-16T18:15:33.963Z,5.67
2023-03-16T18:18:03.555Z,5.71
2023-03-16T18:20:36.768Z,5.72
2023-03-16T18:23:18.222Z,5.73
2023-03-16T18:25:50.039Z,5.73
2023-03-16T18:28:20.659Z,5.74
2023-03-16T18:30:52.084Z,5.76
2023-03-16T18:33:28.648Z,5.79
2023-03-16T18:36:01.726Z,5.81
2023-03-16T18:38:33.912Z,5.86
2023-03-16T18:41:13.819Z,5.92
2023-03-16T18:43:43.021Z,5.84
2023-03-16T18:46:26.741Z,5.88
2023-03-16T18:48:59.108Z,5.83
2023-03-16T18:51:31.169Z,5.79
2023-03-16T18:53:59.834Z,5.77
2023-03-16T18:56:30.205Z,5.63
2023-03-16T18:58:59.028Z,5.61
2023-03-16T19:01:31.707Z,5.65
2023-03-16T19:04:02.572Z,5.66
2023-03-16T19:06:36.444Z,5.61
2023-03-16T19:09:14.946Z,5.49
2023-03-16T19:11:46.129Z,5.40
2023-03-16T19:14:19.275Z,5.31
2023-03-16T19:16:48.184Z,5.23
2023-03-16T19:19:21.144Z,5.10
2023-03-16T19:21:54.808Z,4.92
2023-03-16T19:24:27.587Z,4.84
2023-03-16T19:26:57.548Z,4.68
2023-03-16T19:29:32.946Z,4.60
2023-03-16T19:32:03.204Z,4.49
2023-03-16T19:34:31.909Z,4.37
2023-03-16T19:37:02.188Z,4.30
2023-03-16T19:39:31.121Z,4.24
2023-03-16T19:42:01.084Z,4.14
2023-03-16T19:44:30.803Z,4.10
2023-03-16T19:47:00.927Z,4.11
2023-03-16T19:49:29.910Z,4.14
2023-03-16T19:51:58.682Z,4.18
2023-03-16T19:54:32.075Z,4.28
2023-03-16T19:57:08.419Z,4.34
2023-03-16T19:59:37.425Z,4.28
2023-03-16T20:02:26.569Z,4.45
2023-03-16T20:04:57.385Z,4.54
2023-03-16T20:07:26.189Z,4.49
2023-03-16T20:09:57.332Z,4.48
2023-03-16T20:12:29.721Z,4.48
2023-03-16T20:14:59.775Z,4.48
2023-03-16T20:17:32.875Z,4.43
2023-03-16T20:20:02.060Z,4.42
2023-03-16T20:22:30.700Z,4.50
2023-03-16T20:25:02.170Z,4.51
2023-03-16T20:27:30.801Z,4.54
2023-03-16T20:29:59.885Z,4.47
2023-03-16T20:32:36.085Z,4.47
2023-03-16T20:35:05.170Z,4.56
2023-03-16T20:37:33.836Z,4.52
2023-03-16T20:40:05.134Z,4.49
2023-03-16T20:42:36.999Z,4.45
2023-03-16T20:45:21.849Z,4.44
2023-03-16T20:47:52.031Z,4.31
2023-03-16T20:50:28.599Z,4.20
2023-03-16T20:52:59.524Z,4.13
2023-03-16T20:55:30.033Z,4.12
2023-03-16T20:57:59.189Z,4.11
2023-03-16T21:00:33.268Z,4.11
2023-03-16T21:03:04.951Z,4.08
2023-03-16T21:05:33.857Z,4.06
2023-03-16T21:08:02.656Z,3.99
2023-03-16T21:10:32.810Z,3.89
2023-03-16T21:13:01.576Z,3.79
2023-03-16T21:15:33.410Z,3.76
2023-03-16T21:18:06.450Z,3.73
2023-03-16T21:20:37.200Z,3.70
2023-03-16T21:23:05.904Z,3.58
2023-03-16T21:25:44.873Z,3.56
2023-03-16T21:28:14.430Z,3.57
2023-03-16T21:30:47.651Z,3.64
2023-03-16T21:33:29.865Z,3.66
2023-03-16T21:35:59.766Z,3.59
2023-03-16T21:38:30.401Z,3.58
2023-03-16T21:41:01.440Z,3.57
2023-03-16T21:43:31.189Z,3.59
2023-03-16T21:46:00.823Z,3.57
2023-03-16T21:48:37.070Z,3.57
2023-03-16T21:51:14.580Z,3.55
2023-03-16T21:53:43.783Z,3.60
2023-03-16T21:56:16.980Z,3.62
2023-03-16T21:58:46.555Z,3.59
2023-03-16T22:01:24.804Z,3.53
2023-03-16T22:03:57.711Z,3.52
2023-03-16T22:06:28.986Z,3.52
2023-03-16T22:09:00.736Z,3.49
2023-03-16T22:11:32.064Z,3.46
2023-03-16T22:14:01.708Z,3.53
2023-03-16T22:16:37.166Z,3.52
2023-03-16T22:19:06.428Z,3.56
2023-03-16T22:21:38.637Z,3.62
2023-03-16T22:24:16.406Z,3.72
2023-03-16T22:26:47.648Z,3.79
2023-03-16T22:29:25.266Z,3.78
2023-03-16T22:31:59.417Z,3.79
2023-03-16T22:34:33.218Z,3.85
2023-03-16T22:37:03.033Z,3.90
2023-03-16T22:39:37.622Z,3.86
2023-03-16T22:42:28.077Z,3.88
2023-03-16T22:44:57.300Z,3.85
2023-03-16T22:47:32.231Z,3.92
2023-03-16T22:50:01.486Z,3.95
2023-03-16T22:52:34.474Z,3.98
2023-03-16T22:55:06.932Z,3.94
2023-03-16T22:57:36.944Z,3.97
2023-03-16T23:00:11.294Z,3.98
2023-03-16T23:02:40.301Z,3.95
2023-03-16T23:05:25.420Z,3.95
2023-03-16T23:07:55.009Z,3.92
2023-03-16T23:10:28.410Z,3.92
2023-03-16T23:13:02.025Z,3.93
2023-03-16T23:15:33.415Z,3.88
2023-03-16T23:18:02.090Z,3.79
2023-03-16T23:20:33.482Z,3.77
2023-03-16T23:23:02.207Z,3.76
2023-03-16T23:25:30.819Z,3.73
2023-03-16T23:28:03.426Z,3.84
2023-03-16T23:30:33.664Z,3.77
2023-03-16T23:33:02.314Z,3.61
2023-03-16T23:35:32.920Z,3.62
2023-03-16T23:38:01.611Z,3.61
2023-03-16T23:40:31.531Z,3.70
2023-03-16T23:43:02.565Z,3.70
2023-03-16T23:45:38.220Z,3.70
2023-03-16T23:48:14.268Z,3.73
2023-03-16T23:50:44.382Z,3.69
2023-03-16T23:53:16.047Z,3.70
2023-03-16T23:55:46.740Z,3.68
2023-03-16T23:58:17.705Z,3.74
